Time;durP1;ratioP1;P1;durP2;ratioP2;P2;SDS_P1;SDS_P2;PMS_P1;PMS_P2;Temp;Humidity;BMP_temperature;BMP_pressure;BME280_temperature;BME280_humidity;BME280_pressure;Samples;Min_cycle;Max_cycle;Signal;HPM_P1;HPM_P2
2023/01/01 00:02:17;;;;;;;6.53;2.77;;;;;;;15.72;56.00;100770.78;5037619;28;20216;-78
2023/01/01 00:04:46;;;;;;;6.73;2.80;;;;;;;15.75;56.94;100782.09;5039191;28;20282;-79
2023/01/01 00:07:12;;;;;;;7.47;2.97;;;;;;;15.77;56.56;100766.25;5036871;28;20260;-78
2023/01/01 00:12:22;;;;;;;5.93;2.90;;;;;;;15.83;56.19;100805.53;5047130;28;20251;-78
2023/01/01 00:14:49;;;;;;;6.97;2.50;;;;;;;15.85;55.74;100783.50;5042802;28;20197;-79
2023/01/01 00:17:15;;;;;;;8.50;2.50;;;;;;;15.88;55.80;100785.19;5040911;28;20714;-78
2023/01/01 00:19:41;;;;;;;5.80;2.13;;;;;;;15.88;55.78;100779.91;5040418;28;20201;-78
2023/01/01 00:22:09;;;;;;;5.87;2.40;;;;;;;15.89;55.31;100805.31;5036652;28;20208;-78
2023/01/01 00:24:35;;;;;;;4.80;1.97;;;;;;;15.91;55.10;100803.47;5031906;28;20222;-78
2023/01/01 00:27:02;;;;;;;6.13;2.67;;;;;;;15.93;55.28;100806.91;5031768;28;20235;-78
2023/01/01 00:29:28;;;;;;;4.00;2.20;;;;;;;15.96;55.47;100803.34;5036535;28;20236;-78
2023/01/01 00:31:54;;;;;;;3.30;2.20;;;;;;;15.93;55.25;100809.53;5041469;28;20250;-78
2023/01/01 00:34:21;;;;;;;3.10;1.90;;;;;;;15.94;54.92;100799.91;5044143;28;20236;-78
2023/01/01 00:36:47;;;;;;;6.23;2.27;;;;;;;15.98;55.10;100827.84;5044624;28;20204;-78
2023/01/01 00:39:15;;;;;;;5.23;2.50;;;;;;;16.00;55.37;100828.63;5032894;28;20791;-78
2023/01/01 00:41:41;;;;;;;4.73;2.43;;;;;;;15.99;55.57;100801.44;5090480;23;20198;-81
2023/01/01 00:44:07;;;;;;;5.67;2.47;;;;;;;16.02;55.48;100817.13;5056523;28;20229;-80
2023/01/01 00:46:34;;;;;;;6.37;2.30;;;;;;;16.00;56.00;100804.94;5057802;28;20208;-81
2023/01/01 00:49:00;;;;;;;4.03;2.07;;;;;;;15.94;55.09;100784.94;5051634;28;20221;-79
2023/01/01 00:51:27;;;;;;;2.90;2.03;;;;;;;15.98;55.81;100794.47;5056098;28;20267;-80
2023/01/01 00:53:53;;;;;;;6.27;2.13;;;;;;;15.98;55.49;100773.41;5057537;28;20266;-79
2023/01/01 00:56:21;;;;;;;4.60;1.93;;;;;;;15.98;54.70;100777.81;5056704;28;20266;-79
2023/01/01 00:58:47;;;;;;;7.90;2.50;;;;;;;15.99;54.16;100800.56;5056876;28;20230;-79
2023/01/01 01:01:14;;;;;;;4.20;2.00;;;;;;;16.08;55.16;100818.69;5055684;28;20211;-80
2023/01/01 01:03:40;;;;;;;4.77;2.20;;;;;;;15.99;54.57;100787.41;5056021;28;20241;-80
2023/01/01 01:06:12;;;;;;;7.43;2.30;;;;;;;16.01;54.53;100796.13;5055980;28;20213;-79
2023/01/01 01:08:41;;;;;;;5.13;2.17;;;;;;;16.01;55.42;100804.88;5057459;28;20317;-80
2023/01/01 01:11:09;;;;;;;4.80;2.90;;;;;;;15.98;54.31;100780.44;5058438;28;20211;-79
2023/01/01 01:13:38;;;;;;;5.40;2.30;;;;;;;16.04;55.09;100799.50;5057701;28;20282;-78
2023/01/01 01:16:08;;;;;;;4.97;2.00;;;;;;;16.02;55.70;100789.94;5056928;28;20201;-79
2023/01/01 01:18:34;;;;;;;4.40;1.97;;;;;;;16.04;55.40;100780.22;5056860;28;20207;-79
2023/01/01 01:21:01;;;;;;;2.13;1.93;;;;;;;15.94;54.91;100789.38;5055998;28;20269;-79
2023/01/01 01:23:27;;;;;;;6.20;2.77;;;;;;;15.95;54.90;100786.66;5057448;28;20225;-80
2023/01/01 01:25:53;;;;;;;4.30;2.23;;;;;;;15.99;54.82;100790.91;5056722;28;20269;-80
2023/01/01 01:28:20;;;;;;;7.33;2.70;;;;;;;16.02;55.03;100797.84;5056808;28;20289;-79
2023/01/01 01:30:47;;;;;;;4.60;2.30;;;;;;;16.05;55.13;100788.06;5055875;28;20574;-80
2023/01/01 01:33:14;;;;;;;6.17;2.17;;;;;;;16.03;55.75;100800.41;5056645;28;20227;-80
2023/01/01 01:35:40;;;;;;;8.03;2.23;;;;;;;16.03;55.47;100787.22;5056426;28;20205;-79
2023/01/01 01:38:06;;;;;;;5.63;2.20;;;;;;;16.01;54.75;100811.91;5056771;28;20204;-80
2023/01/01 01:40:33;;;;;;;7.03;2.70;;;;;;;16.03;54.57;100824.09;5056480;28;20265;-80
2023/01/01 01:42:59;;;;;;;5.67;2.30;;;;;;;16.01;54.03;100848.78;5056424;28;20232;-80
2023/01/01 01:45:26;;;;;;;4.83;2.13;;;;;;;16.00;54.63;100832.13;5056574;28;20265;-79
2023/01/01 01:47:56;;;;;;;4.40;2.37;;;;;;;15.96;54.76;100843.69;5056703;28;20390;-80
2023/01/01 01:50:27;;;;;;;7.73;3.30;;;;;;;15.89;54.42;100821.94;5057801;28;20295;-81
2023/01/01 01:53:02;;;;;;;6.67;2.60;;;;;;;16.00;54.22;100839.19;5056783;28;20241;-81
2023/01/01 01:55:32;;;;;;;3.83;2.30;;;;;;;16.02;53.83;100859.25;5056474;28;20237;-79
2023/01/01 01:57:58;;;;;;;7.07;2.87;;;;;;;15.99;54.07;100851.47;5056289;28;20201;-80
2023/01/01 02:00:25;;;;;;;5.07;2.57;;;;;;;15.98;54.36;100859.44;5056153;28;20262;-79
2023/01/01 02:02:56;;;;;;;4.83;3.43;;;;;;;15.95;54.41;100852.47;5056717;28;20255;-81
2023/01/01 02:05:23;;;;;;;5.50;2.30;;;;;;;15.91;53.78;100842.13;5056589;28;20683;-80
2023/01/01 02:07:51;;;;;;;11.40;2.73;;;;;;;15.91;54.45;100860.53;5055720;28;20587;-79
2023/01/01 02:10:17;;;;;;;4.93;2.43;;;;;;;15.93;53.96;100850.81;5055792;28;20207;-80
2023/01/01 02:12:44;;;;;;;5.33;2.93;;;;;;;15.93;53.28;100871.88;5055840;28;20221;-77
2023/01/01 02:15:10;;;;;;;6.30;3.20;;;;;;;15.99;54.50;100876.94;5056178;28;20209;-80
2023/01/01 02:17:44;;;;;;;6.67;2.60;;;;;;;15.82;53.96;100857.31;5055987;28;20205;-80
2023/01/01 02:20:34;;;;;;;9.03;2.93;;;;;;;15.77;54.01;100866.28;5055722;28;20701;-80
2023/01/01 02:23:27;;;;;;;4.27;2.20;;;;;;;15.77;54.52;100863.66;5055506;28;20246;-80
2023/01/01 02:26:16;;;;;;;6.70;2.70;;;;;;;15.80;54.37;100845.13;5055756;28;20208;-79
2023/01/01 02:28:52;;;;;;;4.83;2.83;;;;;;;15.74;54.19;100838.31;5055555;28;20280;-80
2023/01/01 02:31:24;;;;;;;9.50;2.67;;;;;;;15.68;53.94;100852.50;5055071;28;20211;-78
2023/01/01 02:33:54;;;;;;;4.77;2.80;;;;;;;15.70;54.15;100862.97;5055316;28;20220;-80
2023/01/01 02:36:22;;;;;;;5.93;2.70;;;;;;;15.75;54.76;100860.22;5055661;28;20263;-80
2023/01/01 02:38:54;;;;;;;4.50;2.40;;;;;;;15.72;54.61;100837.47;5056041;28;20527;-80
2023/01/01 02:41:24;;;;;;;10.23;3.07;;;;;;;15.60;54.61;100838.72;5055180;28;20209;-80
2023/01/01 02:43:53;;;;;;;4.10;2.40;;;;;;;15.71;53.38;100874.34;5054685;28;20236;-79
2023/01/01 02:46:19;;;;;;;5.70;2.90;;;;;;;15.75;53.84;100868.97;5055991;28;20260;-80
2023/01/01 02:48:48;;;;;;;6.87;2.87;;;;;;;15.71;53.20;100877.84;5055478;28;20584;-80
2023/01/01 02:51:23;;;;;;;5.90;2.67;;;;;;;15.74;53.90;100876.91;5055012;28;20235;-81
2023/01/01 02:53:58;;;;;;;5.43;2.77;;;;;;;15.75;52.35;100897.06;5055867;28;20741;-80
2023/01/01 02:56:33;;;;;;;9.77;2.73;;;;;;;15.80;52.81;100930.22;5054874;28;20765;-81
2023/01/01 03:02:03;;;;;;;3.17;2.20;;;;;;;15.81;53.20;100947.72;5054470;28;20250;-80
2023/01/01 03:04:40;;;;;;;4.27;2.30;;;;;;;15.78;52.82;100928.56;5055085;28;20265;-79
2023/01/01 03:07:14;;;;;;;5.23;3.03;;;;;;;15.73;52.01;100936.59;5055240;28;20208;-81
2023/01/01 03:09:47;;;;;;;4.67;3.00;;;;;;;15.80;53.04;100939.91;5054616;28;20637;-80
2023/01/01 03:12:24;;;;;;;5.37;3.00;;;;;;;15.79;52.33;100949.53;5055229;28;20297;-80
2023/01/01 03:14:57;;;;;;;4.67;2.93;;;;;;;15.75;52.14;100952.34;5055275;28;20342;-80
2023/01/01 03:17:30;;;;;;;5.27;2.57;;;;;;;15.76;52.23;100954.06;5054951;28;20687;-80
2023/01/01 03:20:00;;;;;;;6.47;2.60;;;;;;;15.73;52.06;100972.56;5055003;28;20213;-79
2023/01/01 03:22:31;;;;;;;4.97;2.97;;;;;;;15.74;52.33;100971.66;5054578;28;20278;-79
2023/01/01 03:25:01;;;;;;;5.33;2.40;;;;;;;15.74;51.10;100976.91;5054916;28;20303;-80
2023/01/01 03:27:32;;;;;;;7.90;3.83;;;;;;;15.79;51.71;100985.53;5058045;28;20734;-81
2023/01/01 03:30:02;;;;;;;3.30;2.30;;;;;;;15.82;51.83;100988.09;5058858;28;20207;-79
2023/01/01 03:35:19;;;;;;;4.40;2.93;;;;;;;15.77;51.92;100988.22;5057465;28;20232;-80
2023/01/01 03:37:49;;;;;;;4.70;2.50;;;;;;;15.63;51.13;100970.19;5058519;28;20216;-80
2023/01/01 03:40:18;;;;;;;7.00;2.60;;;;;;;15.66;51.24;100996.44;5057949;28;20207;-80
2023/01/01 03:42:51;;;;;;;4.30;2.37;;;;;;;15.70;50.88;101010.38;5058183;28;20237;-79
2023/01/01 03:45:24;;;;;;;4.03;2.97;;;;;;;15.72;51.04;101015.56;5058789;28;20209;-80
2023/01/01 03:47:51;;;;;;;3.70;2.10;;;;;;;15.69;50.41;101061.25;5057672;28;20208;-79
2023/01/01 03:50:21;;;;;;;7.00;2.17;;;;;;;15.70;50.74;101052.47;5058005;28;20207;-79
2023/01/01 03:52:57;;;;;;;3.80;2.47;;;;;;;15.67;50.86;101048.13;5058208;28;20921;-81
2023/01/01 03:55:31;;;;;;;4.00;2.30;;;;;;;15.61;50.87;101047.47;5058155;28;20202;-80
2023/01/01 03:58:02;;;;;;;4.83;3.00;;;;;;;15.55;49.86;101037.13;5057051;28;20666;-80
2023/01/01 04:00:33;;;;;;;5.37;2.80;;;;;;;15.53;50.05;101025.81;5057793;28;20201;-78
2023/01/01 04:03:04;;;;;;;3.73;2.70;;;;;;;15.60;50.51;101064.16;5057682;28;20293;-80
2023/01/01 04:05:32;;;;;;;3.30;2.20;;;;;;;15.59;49.78;101047.50;5058050;28;20202;-80
2023/01/01 04:08:01;;;;;;;4.57;2.33;;;;;;;15.57;49.90;101049.34;5057744;28;20200;-80
2023/01/01 04:10:31;;;;;;;3.20;2.10;;;;;;;15.61;50.42;101068.53;5057337;28;20212;-80
2023/01/01 04:12:58;;;;;;;3.60;2.20;;;;;;;15.61;50.92;101072.00;5057818;28;20257;-80
2023/01/01 04:15:28;;;;;;;6.40;2.40;;;;;;;15.61;51.13;101056.22;5057678;28;20262;-80
2023/01/01 04:17:55;;;;;;;5.30;2.37;;;;;;;15.59;51.24;101037.00;5057927;28;20203;-80
2023/01/01 04:20:22;;;;;;;6.00;2.40;;;;;;;15.56;51.33;101034.47;5057612;28;20215;-81
2023/01/01 04:22:49;;;;;;;3.27;2.17;;;;;;;15.49;50.43;101031.13;5057034;28;20286;-81
2023/01/01 04:25:17;;;;;;;7.23;2.47;;;;;;;15.49;50.17;101040.81;5057287;28;20209;-79
2023/01/01 04:27:43;;;;;;;3.63;2.23;;;;;;;15.50;51.40;101039.91;5057382;28;20576;-79
2023/01/01 04:30:13;;;;;;;5.70;2.30;;;;;;;15.41;50.91;101029.66;5057013;28;20228;-80
2023/01/01 04:32:40;;;;;;;3.10;1.60;;;;;;;15.40;50.71;101020.03;5057278;28;20257;-81
2023/01/01 04:35:10;;;;;;;5.90;3.07;;;;;;;15.42;50.81;101029.63;5057216;28;20261;-79
2023/01/01 04:37:37;;;;;;;6.73;2.50;;;;;;;15.48;50.90;101054.88;5059606;28;20212;-79
2023/01/01 04:40:05;;;;;;;2.83;1.70;;;;;;;15.53;51.31;101058.22;5057115;28;20270;-80
2023/01/01 04:42:32;;;;;;;3.20;2.03;;;;;;;15.47;50.96;101030.31;5057564;28;20236;-80
2023/01/01 04:44:58;;;;;;;6.40;2.83;;;;;;;15.46;51.37;101043.53;5057104;28;20262;-81
2023/01/01 04:47:25;;;;;;;3.97;2.13;;;;;;;15.44;50.92;101038.31;5057427;28;20265;-80
2023/01/01 04:49:52;;;;;;;3.53;1.90;;;;;;;15.42;50.73;101052.41;5057310;28;20225;-79
2023/01/01 04:52:19;;;;;;;3.57;1.70;;;;;;;15.36;50.85;101042.94;5057039;28;20228;-81
2023/01/01 04:54:46;;;;;;;2.67;1.60;;;;;;;15.40;51.42;101035.81;5057485;28;20208;-81
2023/01/01 04:57:12;;;;;;;2.27;1.67;;;;;;;15.36;50.99;101050.84;5056558;28;20204;-81
2023/01/01 04:59:39;;;;;;;4.17;1.80;;;;;;;15.41;51.44;101043.66;5056287;28;20205;-81
2023/01/01 05:02:05;;;;;;;2.90;1.73;;;;;;;15.41;51.81;101045.44;5056090;28;20286;-80
2023/01/01 05:04:31;;;;;;;3.63;1.90;;;;;;;15.43;51.76;101047.09;5057197;28;20204;-80
2023/01/01 05:06:58;;;;;;;4.10;1.90;;;;;;;15.35;51.14;101035.09;5057142;28;20211;-80
2023/01/01 05:09:25;;;;;;;3.97;1.70;;;;;;;15.29;51.52;101020.34;5056762;28;20246;-81
2023/01/01 05:11:53;;;;;;;4.87;1.70;;;;;;;15.35;52.47;101016.69;5056203;28;20227;-80
2023/01/01 05:14:20;;;;;;;2.87;1.63;;;;;;;15.28;52.07;101003.72;5057050;28;20262;-81
2023/01/01 05:16:46;;;;;;;5.53;1.73;;;;;;;15.35;52.78;101006.16;5056366;28;20209;-80
2023/01/01 05:19:12;;;;;;;2.57;1.80;;;;;;;15.29;51.79;100991.41;5056270;28;20211;-80
2023/01/01 05:21:40;;;;;;;4.23;1.80;;;;;;;15.22;52.25;101003.91;5055806;28;20710;-80
2023/01/01 05:24:08;;;;;;;3.60;1.83;;;;;;;15.21;52.27;101006.56;5056810;28;20277;-81
2023/01/01 05:26:38;;;;;;;4.27;1.77;;;;;;;15.18;51.83;101012.78;5056498;28;20204;-80
2023/01/01 05:29:05;;;;;;;3.40;1.70;;;;;;;15.23;52.38;101013.50;5055893;28;20228;-80
2023/01/01 05:31:33;;;;;;;3.33;1.60;;;;;;;15.30;52.75;101019.44;5056001;28;20209;-80
2023/01/01 05:34:00;;;;;;;2.47;1.70;;;;;;;15.32;52.74;101004.50;5056544;28;20208;-80
2023/01/01 05:36:28;;;;;;;3.07;1.80;;;;;;;15.22;51.96;101003.00;5056335;28;20223;-80
2023/01/01 05:38:55;;;;;;;2.80;1.70;;;;;;;15.24;52.22;101012.59;5056255;28;20207;-79
2023/01/01 05:41:22;;;;;;;2.33;1.60;;;;;;;15.24;52.40;101014.34;5055146;28;20255;-80
2023/01/01 05:43:51;;;;;;;3.20;1.70;;;;;;;15.12;52.81;100997.16;5056004;28;20266;-79
2023/01/01 05:46:19;;;;;;;3.10;1.67;;;;;;;15.16;52.58;100980.38;5055880;28;20212;-79
2023/01/01 05:48:46;;;;;;;3.63;1.43;;;;;;;15.11;51.97;101015.63;5055446;28;20228;-80
2023/01/01 05:51:14;;;;;;;3.50;1.47;;;;;;;15.13;53.27;101024.34;5055232;28;20209;-80
2023/01/01 05:53:43;;;;;;;2.10;1.70;;;;;;;15.04;52.81;101010.56;5056030;28;20258;-80
2023/01/01 05:56:09;;;;;;;1.77;1.30;;;;;;;15.07;52.23;100999.06;5055240;28;20217;-79
2023/01/01 05:58:37;;;;;;;1.90;1.33;;;;;;;15.14;52.26;101012.91;5055559;28;20209;-79
2023/01/01 06:01:10;;;;;;;7.33;1.63;;;;;;;15.13;52.23;101011.19;5055551;28;20203;-80
2023/01/01 06:03:36;;;;;;;2.73;1.43;;;;;;;15.16;52.01;101021.59;5055545;28;20649;-80
2023/01/01 06:06:04;;;;;;;2.60;1.80;;;;;;;15.12;52.42;101017.34;5055456;28;20208;-79
2023/01/01 06:08:31;;;;;;;3.33;1.60;;;;;;;15.20;52.92;101028.50;5055212;28;20207;-80
2023/01/01 06:10:59;;;;;;;2.07;1.60;;;;;;;15.15;53.02;101018.13;5055488;28;20220;-80
2023/01/01 06:13:25;;;;;;;1.50;1.30;;;;;;;15.12;52.73;101015.56;5056212;28;20231;-80
2023/01/01 06:15:53;;;;;;;3.23;1.40;;;;;;;15.13;53.42;101016.44;5064700;28;20204;-80
2023/01/01 06:18:21;;;;;;;3.53;1.50;;;;;;;15.09;54.04;101006.00;5068106;28;20293;-80
2023/01/01 06:20:47;;;;;;;4.97;1.80;;;;;;;14.94;53.88;100998.53;5066796;28;20203;-80
2023/01/01 06:23:14;;;;;;;3.80;1.40;;;;;;;15.01;54.38;100986.09;5068291;28;20773;-80
2023/01/01 06:25:40;;;;;;;2.80;1.50;;;;;;;14.89;53.69;100956.63;5067340;28;20201;-80
2023/01/01 06:28:06;;;;;;;4.47;1.50;;;;;;;14.94;54.63;100968.78;5069529;28;20235;-80
2023/01/01 06:30:33;;;;;;;1.93;1.57;;;;;;;14.95;54.16;100949.47;5067616;28;20232;-79
2023/01/01 06:32:59;;;;;;;5.93;1.67;;;;;;;14.87;54.46;100968.09;5056933;28;20240;-80
2023/01/01 06:35:27;;;;;;;3.13;1.30;;;;;;;14.76;53.73;100955.25;5055609;28;20230;-80
2023/01/01 06:37:54;;;;;;;3.20;1.03;;;;;;;14.83;53.94;100983.09;5056338;28;20693;-80
2023/01/01 06:40:20;;;;;;;1.93;1.60;;;;;;;14.85;54.27;100985.69;5055891;28;20851;-80
2023/01/01 06:42:46;;;;;;;2.33;1.37;;;;;;;14.91;54.61;100977.63;5057389;28;20278;-78
2023/01/01 06:45:13;;;;;;;2.73;1.37;;;;;;;14.94;54.61;100976.66;5055681;28;20211;-80
2023/01/01 06:47:39;;;;;;;2.23;1.10;;;;;;;14.80;54.32;100980.53;5055676;28;20265;-77
2023/01/01 06:50:06;;;;;;;2.47;1.30;;;;;;;14.74;55.16;100991.22;5055017;28;20235;-79
2023/01/01 06:52:34;;;;;;;4.13;1.87;;;;;;;14.77;54.69;100977.16;5056866;28;20227;-80
2023/01/01 06:55:00;;;;;;;2.90;1.40;;;;;;;14.76;55.05;100976.25;5056244;28;20204;-80
2023/01/01 06:57:27;;;;;;;5.50;1.73;;;;;;;14.74;54.84;100985.09;5056997;28;20261;-79
2023/01/01 06:59:53;;;;;;;3.13;1.67;;;;;;;14.70;54.77;100981.69;5054958;28;20270;-80
2023/01/01 07:02:19;;;;;;;2.30;1.20;;;;;;;14.72;54.40;100969.38;5060062;28;20281;-80
2023/01/01 07:04:46;;;;;;;2.00;1.40;;;;;;;14.66;54.27;100983.53;5059977;28;20904;-80
2023/01/01 07:07:12;;;;;;;4.20;1.77;;;;;;;14.73;54.39;101020.16;5060230;28;20211;-80
2023/01/01 07:09:39;;;;;;;1.93;1.47;;;;;;;14.70;54.47;101016.72;5060312;28;20227;-79
2023/01/01 07:12:06;;;;;;;3.07;1.17;;;;;;;14.70;54.74;101023.75;5059137;28;20231;-80
2023/01/01 07:14:33;;;;;;;2.63;1.80;;;;;;;14.68;54.24;101028.19;5059986;28;20260;-79
2023/01/01 07:16:59;;;;;;;1.60;1.20;;;;;;;14.66;54.47;101024.72;5059727;28;20237;-80
2023/01/01 07:19:25;;;;;;;1.93;1.40;;;;;;;14.70;54.71;101021.97;5059637;28;20203;-80
2023/01/01 07:21:53;;;;;;;3.37;1.40;;;;;;;14.74;54.50;101020.13;5059072;28;20256;-80
2023/01/01 07:24:20;;;;;;;2.43;1.40;;;;;;;14.77;54.69;101017.44;5059792;28;20219;-79
2023/01/01 07:26:48;;;;;;;3.73;1.57;;;;;;;14.80;55.95;101012.06;5059295;28;20203;-80
2023/01/01 07:29:15;;;;;;;3.27;1.50;;;;;;;14.68;54.75;101002.75;5059675;28;20231;-80
2023/01/01 07:31:43;;;;;;;2.47;1.40;;;;;;;14.73;55.30;101033.28;5059423;28;20204;-80
2023/01/01 07:34:13;;;;;;;2.47;1.73;;;;;;;14.62;55.43;101038.84;5059525;28;20206;-80
2023/01/01 07:36:40;;;;;;;2.77;1.50;;;;;;;14.69;55.29;101035.16;5059422;28;20233;-80
2023/01/01 07:39:06;;;;;;;2.93;1.40;;;;;;;14.57;55.12;101025.84;5059224;28;20265;-80
2023/01/01 07:41:32;;;;;;;3.23;1.40;;;;;;;14.68;55.24;101041.31;5058625;28;20254;-79
2023/01/01 07:44:00;;;;;;;2.50;1.70;;;;;;;14.67;56.05;101048.34;5059313;28;20219;-80
2023/01/01 07:46:27;;;;;;;1.57;1.17;;;;;;;14.70;56.18;101037.72;5060003;28;20216;-80
2023/01/01 07:48:53;;;;;;;1.97;1.43;;;;;;;14.68;55.91;101036.91;5058954;28;20208;-80
2023/01/01 07:51:20;;;;;;;4.30;1.77;;;;;;;14.72;55.93;101036.84;5058557;28;20670;-80
2023/01/01 07:53:46;;;;;;;3.07;1.73;;;;;;;14.77;56.92;101014.78;5059014;28;20713;-80
2023/01/01 07:56:12;;;;;;;2.73;1.40;;;;;;;14.73;56.43;101026.31;5058786;28;20205;-80
2023/01/01 07:58:39;;;;;;;2.77;1.60;;;;;;;14.76;56.24;101030.59;5058426;28;20212;-80
2023/01/01 08:01:10;;;;;;;3.80;1.60;;;;;;;14.73;55.45;101039.44;5058009;28;20253;-80
2023/01/01 08:03:36;;;;;;;2.47;1.57;;;;;;;14.78;56.29;101044.56;5058459;28;20227;-80
2023/01/01 08:06:06;;;;;;;3.63;1.13;;;;;;;14.84;56.74;101024.22;5059741;28;20204;-80
2023/01/01 08:08:33;;;;;;;1.63;1.30;;;;;;;14.87;56.87;101031.19;5058894;28;20230;-79
2023/01/01 08:11:00;;;;;;;3.27;1.43;;;;;;;14.67;56.34;101029.09;5058364;28;20228;-80
2023/01/01 08:13:26;;;;;;;3.13;1.17;;;;;;;14.76;56.40;101030.59;5059197;28;20231;-80
2023/01/01 08:15:54;;;;;;;3.03;1.50;;;;;;;14.80;56.46;101024.34;5058921;28;20289;-80
2023/01/01 08:18:22;;;;;;;2.20;1.10;;;;;;;14.80;56.70;101032.25;5058433;28;20267;-79
2023/01/01 08:20:48;;;;;;;3.37;1.60;;;;;;;14.82;56.85;101012.88;5058946;28;20587;-80
2023/01/01 08:23:14;;;;;;;2.10;1.10;;;;;;;14.72;56.20;101048.22;5058994;28;20232;-80
2023/01/01 08:25:41;;;;;;;2.53;1.27;;;;;;;14.74;56.24;101064.81;5059064;28;20232;-80
2023/01/01 08:28:07;;;;;;;1.63;1.20;;;;;;;14.82;56.77;101051.47;5058513;28;20211;-81
2023/01/01 08:30:33;;;;;;;2.40;1.10;;;;;;;14.80;56.95;101040.97;5058712;28;20279;-80
2023/01/01 08:32:59;;;;;;;2.47;1.30;;;;;;;14.86;57.10;101034.69;5057945;28;20254;-80
2023/01/01 08:35:27;;;;;;;2.60;1.10;;;;;;;14.89;57.41;101024.97;5058811;28;20561;-79
2023/01/01 08:37:54;;;;;;;1.80;1.37;;;;;;;14.76;57.63;101033.22;5058235;28;20208;-80
2023/01/01 08:40:20;;;;;;;1.90;1.50;;;;;;;14.73;57.21;101021.03;5058011;28;20209;-79
2023/01/01 08:42:46;;;;;;;1.80;1.20;;;;;;;14.67;57.75;101023.84;5057835;28;20231;-80
2023/01/01 08:45:13;;;;;;;2.33;1.40;;;;;;;14.69;57.86;101020.25;5057626;28;20209;-79
2023/01/01 08:47:40;;;;;;;1.53;1.27;;;;;;;14.72;57.77;101013.19;5057578;28;20738;-81
2023/01/01 08:50:07;;;;;;;2.40;1.20;;;;;;;14.70;57.88;100995.69;5057799;28;20287;-81
2023/01/01 08:52:35;;;;;;;3.03;1.20;;;;;;;14.62;58.02;101012.56;5057593;28;20279;-81
2023/01/01 08:55:01;;;;;;;4.77;1.40;;;;;;;14.64;58.33;101016.88;5057538;28;20714;-81
2023/01/01 08:57:29;;;;;;;1.73;1.63;;;;;;;14.67;58.76;101019.44;5058318;28;20209;-78
2023/01/01 08:59:56;;;;;;;2.83;1.20;;;;;;;14.67;59.01;101003.66;5056924;28;20269;-81
2023/01/01 09:02:22;;;;;;;1.60;1.17;;;;;;;14.67;58.28;101011.56;5057819;28;20250;-81
2023/01/01 09:04:48;;;;;;;2.37;1.17;;;;;;;14.68;58.10;101013.25;5057867;28;20282;-78
2023/01/01 09:07:15;;;;;;;2.23;1.10;;;;;;;14.69;58.07;101030.75;5057323;28;20741;-79
2023/01/01 09:09:42;;;;;;;5.23;1.70;;;;;;;14.76;58.31;101031.47;5058432;28;20724;-80
2023/01/01 09:12:14;;;;;;;2.70;1.50;;;;;;;14.80;58.58;101038.34;5057876;28;20232;-79
2023/01/01 09:14:40;;;;;;;2.43;1.30;;;;;;;14.59;58.28;101054.69;5058121;28;20192;-79
2023/01/01 09:17:07;;;;;;;2.93;1.40;;;;;;;14.69;58.84;101051.78;5058444;28;20626;-80
2023/01/01 09:19:33;;;;;;;5.07;2.03;;;;;;;14.58;58.16;101045.09;5057819;28;20207;-79
2023/01/01 09:22:00;;;;;;;4.03;1.23;;;;;;;14.69;58.83;101043.06;5057561;28;20250;-80
2023/01/01 09:24:27;;;;;;;2.10;1.40;;;;;;;14.82;58.90;101046.19;5056946;28;20204;-80
2023/01/01 09:26:54;;;;;;;3.00;1.27;;;;;;;14.66;59.32;101043.97;5058179;28;20204;-81
2023/01/01 09:29:21;;;;;;;2.30;1.00;;;;;;;14.63;59.69;101038.81;5058042;28;20212;-78
2023/01/01 09:31:48;;;;;;;1.73;1.47;;;;;;;14.71;59.61;101012.34;5057538;28;20714;-80
2023/01/01 09:34:15;;;;;;;2.90;1.47;;;;;;;14.73;60.11;101014.91;5055328;28;20253;-80
2023/01/01 09:36:41;;;;;;;2.43;1.50;;;;;;;14.82;59.88;101009.41;5057344;28;20737;-80
2023/01/01 09:39:11;;;;;;;3.20;1.20;;;;;;;14.86;59.80;101017.16;5057662;28;20207;-80
2023/01/01 09:41:54;;;;;;;2.93;1.33;;;;;;;14.85;60.09;101033.00;5055916;28;20203;-79
2023/01/01 09:44:41;;;;;;;2.47;1.30;;;;;;;14.68;59.59;101047.41;5056383;28;20207;-80
2023/01/01 09:47:18;;;;;;;1.43;1.10;;;;;;;14.72;60.27;101048.22;5056368;28;20259;-81
2023/01/01 09:49:47;;;;;;;1.80;1.70;;;;;;;14.64;60.13;101043.16;5054735;28;20249;-80
2023/01/01 09:52:16;;;;;;;1.60;1.10;;;;;;;14.58;60.27;101030.19;5056738;28;20251;-80
2023/01/01 09:54:50;;;;;;;2.93;1.97;;;;;;;14.60;60.45;101025.75;5042571;28;20263;-78
2023/01/01 09:57:17;;;;;;;1.70;1.57;;;;;;;14.59;60.04;101038.91;5046732;28;20192;-80
2023/01/01 09:59:44;;;;;;;2.57;1.30;;;;;;;14.65;60.73;101037.00;5044548;28;20209;-80
2023/01/01 10:02:25;;;;;;;3.97;1.50;;;;;;;14.53;61.54;101032.03;5044676;28;20703;-80
2023/01/01 10:05:02;;;;;;;2.17;1.17;;;;;;;14.56;61.40;101025.84;5046849;28;20199;-81
2023/01/01 10:07:41;;;;;;;2.30;1.60;;;;;;;14.50;61.52;101025.09;5046318;28;20200;-79
2023/01/01 10:10:28;;;;;;;3.07;1.40;;;;;;;14.47;61.47;101022.56;5045842;28;20243;-79
2023/01/01 10:13:03;;;;;;;3.50;1.13;;;;;;;14.43;62.18;101018.28;5046593;28;20231;-80
2023/01/01 10:15:34;;;;;;;2.70;1.30;;;;;;;14.40;62.64;101013.09;5045557;28;20205;-80
2023/01/01 10:18:05;;;;;;;2.27;1.30;;;;;;;14.26;63.83;101000.31;5044739;28;20201;-81
2023/01/01 10:20:37;;;;;;;4.50;2.47;;;;;;;13.69;69.14;100878.34;5045854;28;20276;-81
2023/01/01 10:23:11;;;;;;;5.83;2.73;;;;;;;13.27;73.09;100713.28;5052605;28;20228;-80
2023/01/01 10:25:41;;;;;;;2.53;1.77;;;;;;;12.83;77.49;100565.94;5045308;28;20271;-78
2023/01/01 10:28:15;;;;;;;4.00;1.80;;;;;;;12.79;78.64;100427.25;5035353;28;20200;-79
2023/01/01 10:30:43;;;;;;;2.40;1.70;;;;;;;12.63;79.53;100393.63;5036615;28;20217;-80
2023/01/01 10:33:12;;;;;;;3.10;2.30;;;;;;;12.46;80.98;100339.09;5036646;28;20212;-80
2023/01/01 10:35:41;;;;;;;5.73;1.40;;;;;;;12.64;80.71;100315.91;5037164;28;20199;-80
2023/01/01 10:38:22;;;;;;;3.77;3.10;;;;;;;12.52;81.60;100323.22;5037698;28;20615;-79
2023/01/01 10:40:49;;;;;;;5.60;3.87;;;;;;;12.57;81.92;100330.09;5046514;28;20193;-80
2023/01/01 10:43:15;;;;;;;2.90;1.77;;;;;;;12.75;80.91;100349.66;5046451;28;20327;-82
2023/01/01 10:45:48;;;;;;;2.33;1.93;;;;;;;12.71;81.28;100370.69;5043432;28;20256;-81
2023/01/01 10:48:19;;;;;;;4.00;3.60;;;;;;;12.55;81.63;100385.13;5046464;28;20585;-81
2023/01/01 10:50:50;;;;;;;2.33;1.50;;;;;;;12.70;81.52;100389.06;5045852;28;20249;-80
2023/01/01 10:53:27;;;;;;;4.63;2.70;;;;;;;12.77;80.94;100414.19;5044755;28;20218;-79
2023/01/01 10:56:00;;;;;;;3.03;1.43;;;;;;;12.77;80.90;100419.41;5045785;28;20199;-80
2023/01/01 10:58:33;;;;;;;2.17;1.60;;;;;;;12.54;81.68;100461.94;5045370;28;20204;-80
2023/01/01 11:01:04;;;;;;;2.90;1.50;;;;;;;12.68;81.55;100457.19;5045083;28;20211;-80
2023/01/01 11:03:30;;;;;;;3.47;2.33;;;;;;;12.77;81.60;100465.72;5044842;28;20261;-80
2023/01/01 11:06:07;;;;;;;5.63;4.90;;;;;;;12.77;80.73;100492.75;5045225;28;20233;-79
2023/01/01 11:08:35;;;;;;;3.03;1.60;;;;;;;12.66;81.36;100505.28;5046532;28;20544;-79
2023/01/01 11:11:03;;;;;;;1.90;1.80;;;;;;;12.69;81.30;100505.22;5048630;28;20277;-81
2023/01/01 11:13:30;;;;;;;3.67;2.13;;;;;;;12.62;81.94;100501.88;5053697;28;20260;-81
2023/01/01 11:15:57;;;;;;;3.13;2.00;;;;;;;12.35;83.87;100468.56;5053765;28;20217;-79
2023/01/01 11:18:34;;;;;;;5.67;2.87;;;;;;;12.30;85.20;100427.66;5045512;28;20625;-80
2023/01/01 11:21:01;;;;;;;3.23;2.90;;;;;;;12.17;87.17;100392.25;5046055;28;20203;-82
2023/01/01 11:23:30;;;;;;;4.47;2.43;;;;;;;12.23;88.15;100350.22;5052517;28;20218;-81
2023/01/01 11:25:59;;;;;;;3.13;2.10;;;;;;;11.97;90.02;100306.47;5055449;28;20209;-81
2023/01/01 11:28:27;;;;;;;6.27;5.73;;;;;;;11.75;92.23;100269.50;5055394;28;20207;-81
2023/01/01 11:31:07;;;;;;;3.97;2.27;;;;;;;11.86;93.11;100223.00;5048214;28;20219;-82
2023/01/01 11:33:39;;;;;;;5.97;5.40;;;;;;;11.76;93.85;100200.63;5046484;28;20218;-79
2023/01/01 11:36:06;;;;;;;2.17;1.97;;;;;;;11.87;94.00;100209.03;5043674;28;20609;-79
2023/01/01 11:38:34;;;;;;;3.50;3.20;;;;;;;11.89;94.09;100209.00;5043019;28;20251;-78
2023/01/01 11:41:04;;;;;;;2.87;1.70;;;;;;;11.90;93.81;100227.28;5044095;28;20240;-80